createdAt,value
2018-12-30T00:00:25.093Z,3.95
2018-12-30T00:02:53.219Z,3.55
2018-12-30T00:05:21.453Z,4.25
2018-12-30T00:07:49.703Z,3.80
2018-12-30T00:10:17.643Z,3.53
2018-12-30T00:12:45.923Z,4.05
2018-12-30T00:15:13.807Z,3.53
2018-12-30T00:17:41.899Z,3.65
2018-12-30T00:20:10.499Z,4.55
2018-12-30T00:22:39.083Z,4.53
2018-12-30T00:25:07.114Z,3.62
2018-12-30T00:27:35.129Z,3.70
2018-12-30T00:30:03.745Z,4.40
2018-12-30T00:32:31.769Z,3.67
2018-12-30T00:34:59.490Z,3.95
2018-12-30T00:37:27.657Z,3.70
2018-12-30T00:39:55.656Z,3.85
2018-12-30T00:42:24.158Z,3.42
2018-12-30T00:44:52.596Z,3.58
2018-12-30T00:47:20.634Z,3.05
2018-12-30T00:49:48.395Z,3.58
2018-12-30T00:52:16.423Z,4.25
2018-12-30T00:54:44.432Z,3.55
2018-12-30T00:57:12.464Z,3.67
2018-12-30T00:59:40.231Z,2.97
2018-12-30T01:02:07.984Z,4.40
2018-12-30T01:04:35.714Z,3.58
2018-12-30T01:07:04.052Z,3.35
2018-12-30T01:09:32.041Z,4.37
2018-12-30T01:12:00.006Z,3.08
2018-12-30T01:14:28.596Z,4.07
2018-12-30T01:16:56.609Z,3.67
2018-12-30T01:19:24.602Z,3.72
2018-12-30T01:21:52.681Z,3.72
2018-12-30T01:24:20.416Z,3.45
2018-12-30T01:26:48.464Z,3.90
2018-12-30T01:29:16.662Z,3.45
2018-12-30T01:31:44.696Z,3.62
2018-12-30T01:34:13.149Z,3.10
2018-12-30T01:36:41.580Z,4.97
2018-12-30T01:39:10.016Z,3.00
2018-12-30T01:41:38.068Z,3.50
2018-12-30T01:44:06.135Z,3.70
2018-12-30T01:46:34.780Z,3.08
2018-12-30T01:49:02.786Z,3.53
2018-12-30T01:51:33.115Z,4.12
2018-12-30T01:53:59.064Z,3.97
2018-12-30T01:56:27.094Z,3.22
2018-12-30T01:58:55.550Z,3.70
2018-12-30T02:01:23.616Z,3.28
2018-12-30T02:03:51.626Z,3.87
2018-12-30T02:06:19.664Z,3.53
2018-12-30T02:08:47.634Z,4.00
2018-12-30T02:11:42.728Z,3.42
2018-12-30T02:14:10.485Z,3.03
2018-12-30T02:16:38.525Z,3.83
2018-12-30T02:19:06.840Z,3.33
2018-12-30T02:21:41.059Z,3.62
2018-12-30T02:24:02.572Z,3.90
2018-12-30T02:26:30.630Z,4.03
2018-12-30T02:28:59.188Z,3.03
2018-12-30T02:31:26.897Z,3.17
2018-12-30T02:33:55.374Z,2.87
2018-12-30T02:36:23.333Z,3.30
2018-12-30T02:38:51.339Z,3.17
2018-12-30T02:41:19.409Z,3.75
2018-12-30T02:43:47.388Z,3.10
2018-12-30T02:46:15.378Z,3.70
2018-12-30T02:48:43.387Z,3.15
2018-12-30T02:51:12.266Z,3.05
2018-12-30T02:53:42.068Z,3.42
2018-12-30T02:56:09.738Z,3.42
2018-12-30T02:58:37.825Z,3.00
2018-12-30T03:01:05.562Z,3.03
2018-12-30T03:03:33.668Z,2.75
2018-12-30T03:06:01.396Z,3.10
2018-12-30T03:08:28.815Z,2.50
2018-12-30T03:10:56.861Z,3.00
2018-12-30T03:13:24.842Z,3.58
2018-12-30T03:15:52.992Z,3.50
2018-12-30T03:18:21.357Z,3.20
2018-12-30T03:20:50.097Z,3.35
2018-12-30T03:23:18.750Z,2.70
2018-12-30T03:25:47.106Z,3.40
2018-12-30T03:28:15.168Z,2.85
2018-12-30T03:30:43.852Z,3.80
2018-12-30T03:33:11.888Z,3.00
2018-12-30T03:35:39.918Z,2.87
2018-12-30T03:38:07.910Z,3.17
2018-12-30T03:40:36.043Z,2.80
2018-12-30T03:43:04.127Z,3.10
2018-12-30T03:45:32.093Z,3.10
2018-12-30T03:47:59.547Z,2.50
2018-12-30T03:50:27.321Z,2.87
2018-12-30T03:52:55.060Z,3.28
2018-12-30T03:55:22.792Z,2.62
2018-12-30T03:57:50.812Z,3.00
2018-12-30T04:00:20.003Z,3.10
2018-12-30T04:02:48.021Z,2.25
2018-12-30T04:05:16.021Z,3.70
2018-12-30T04:07:43.735Z,3.12
2018-12-30T04:10:11.498Z,4.20
2018-12-30T04:12:39.194Z,3.40
2018-12-30T04:15:06.924Z,3.33
2018-12-30T04:17:34.983Z,3.22
2018-12-30T04:20:02.986Z,2.97
2018-12-30T04:22:31.471Z,3.37
2018-12-30T04:24:59.259Z,2.67
2018-12-30T04:27:27.228Z,3.83
2018-12-30T04:29:55.268Z,3.05
2018-12-30T04:32:23.264Z,2.50
2018-12-30T04:34:50.970Z,3.35
2018-12-30T04:37:18.657Z,3.20
2018-12-30T04:39:46.894Z,2.30
2018-12-30T04:42:14.864Z,2.58
2018-12-30T04:44:42.939Z,2.35
2018-12-30T04:47:10.937Z,2.80
2018-12-30T04:49:39.081Z,2.50
2018-12-30T04:52:07.058Z,3.10
2018-12-30T04:54:35.522Z,2.70
2018-12-30T04:57:03.206Z,2.90
2018-12-30T04:59:30.926Z,3.22
2018-12-30T05:01:59.442Z,2.65
2018-12-30T05:04:28.086Z,2.42
2018-12-30T05:06:56.048Z,2.28
2018-12-30T05:09:24.010Z,2.50
2018-12-30T05:11:51.731Z,2.33
2018-12-30T05:14:20.292Z,2.80
2018-12-30T05:16:48.360Z,2.20
2018-12-30T05:19:16.342Z,2.75
2018-12-30T05:21:44.446Z,2.25
2018-12-30T05:24:13.062Z,2.72
2018-12-30T05:26:40.760Z,3.28
2018-12-30T05:29:08.867Z,2.65
2018-12-30T05:31:36.901Z,2.22
2018-12-30T05:34:04.858Z,2.67
2018-12-30T05:36:32.847Z,2.03
2018-12-30T05:39:01.145Z,2.22
2018-12-30T05:41:30.065Z,1.98
2018-12-30T05:43:59.394Z,2.60
2018-12-30T05:46:29.656Z,2.22
2018-12-30T05:48:57.374Z,2.87
2018-12-30T05:51:25.363Z,2.70
2018-12-30T05:53:53.519Z,2.60
2018-12-30T05:56:21.509Z,2.03
2018-12-30T05:58:49.639Z,2.60
2018-12-30T06:01:17.385Z,2.12
2018-12-30T06:03:45.405Z,2.12
2018-12-30T06:06:13.141Z,2.53
2018-12-30T06:08:41.077Z,2.65
2018-12-30T06:11:08.788Z,1.70
2018-12-30T06:13:36.565Z,2.08
2018-12-30T06:16:04.464Z,3.03
2018-12-30T06:18:32.450Z,2.30
2018-12-30T06:21:00.441Z,2.05
2018-12-30T06:23:28.503Z,2.28
2018-12-30T06:25:56.525Z,1.92
2018-12-30T06:28:24.537Z,2.03
2018-12-30T06:30:52.867Z,2.28
2018-12-30T06:33:20.850Z,2.17
2018-12-30T06:35:48.829Z,1.62
2018-12-30T06:38:16.845Z,2.42
2018-12-30T06:40:44.788Z,2.08
2018-12-30T06:43:12.510Z,2.70
2018-12-30T06:45:40.622Z,2.12
2018-12-30T06:48:08.938Z,2.33
2018-12-30T06:50:36.918Z,1.90
2018-12-30T06:53:04.897Z,2.03
2018-12-30T06:55:32.846Z,1.80
2018-12-30T06:58:00.820Z,2.58
2018-12-30T07:00:28.841Z,2.42
2018-12-30T07:02:56.788Z,2.30
2018-12-30T07:05:25.357Z,2.92
2018-12-30T07:07:53.453Z,2.00
2018-12-30T07:10:21.264Z,2.15
2018-12-30T07:12:49.250Z,2.58
2018-12-30T07:15:17.327Z,3.22
2018-12-30T07:17:44.780Z,1.70
2018-12-30T07:20:12.757Z,1.90
2018-12-30T07:22:41.361Z,2.10
2018-12-30T07:25:09.310Z,2.03
2018-12-30T07:27:37.035Z,2.12
2018-12-30T07:30:05.889Z,2.10
2018-12-30T07:32:33.881Z,1.95
2018-12-30T07:35:01.923Z,2.55
2018-12-30T07:37:30.389Z,2.20
2018-12-30T07:39:58.113Z,2.95
2018-12-30T07:42:26.054Z,2.65
2018-12-30T07:44:54.113Z,2.37
2018-12-30T07:47:22.139Z,2.37
2018-12-30T07:49:51.325Z,1.85
2018-12-30T07:52:19.342Z,2.70
2018-12-30T07:54:47.150Z,2.53
2018-12-30T07:57:14.818Z,2.50
2018-12-30T07:59:42.920Z,2.67
2018-12-30T08:02:10.905Z,2.28
2018-12-30T08:04:38.862Z,2.42
2018-12-30T08:07:06.579Z,2.15
2018-12-30T08:09:34.711Z,1.90
2018-12-30T08:12:02.671Z,1.90
2018-12-30T08:14:30.673Z,2.05
2018-12-30T08:16:58.673Z,2.03
2018-12-30T08:19:26.690Z,2.58
2018-12-30T08:21:54.950Z,2.30
2018-12-30T08:24:23.210Z,2.50
2018-12-30T08:26:51.193Z,2.05
2018-12-30T08:29:18.954Z,2.67
2018-12-30T08:31:46.722Z,2.78
2018-12-30T08:34:14.727Z,2.97
2018-12-30T08:36:42.747Z,3.15
2018-12-30T08:39:10.752Z,2.62
2018-12-30T08:41:38.777Z,3.08
2018-12-30T08:44:06.915Z,3.75
2018-12-30T08:46:34.628Z,3.28
2018-12-30T08:49:02.601Z,2.83
2018-12-30T08:51:31.002Z,2.55
2018-12-30T08:53:59.490Z,2.80
2018-12-30T08:56:27.186Z,2.90
2018-12-30T08:58:55.218Z,2.28
2018-12-30T09:01:28.274Z,2.65
2018-12-30T09:03:51.555Z,3.20
2018-12-30T09:06:19.545Z,2.67
2018-12-30T09:08:47.562Z,2.83
2018-12-30T09:11:15.280Z,3.20
2018-12-30T09:13:43.264Z,3.05
2018-12-30T09:16:11.243Z,2.60
2018-12-30T09:18:38.939Z,3.30
2018-12-30T09:21:07.002Z,2.92
2018-12-30T09:23:37.506Z,2.45
2018-12-30T09:26:02.753Z,3.40
2018-12-30T09:28:30.753Z,2.15
2018-12-30T09:30:58.821Z,2.97
2018-12-30T09:33:26.895Z,4.18
2018-12-30T09:35:54.620Z,3.72
2018-12-30T09:38:22.911Z,2.78
2018-12-30T09:40:50.621Z,3.35
2018-12-30T09:43:18.786Z,3.05
2018-12-30T09:45:46.912Z,2.78
2018-12-30T09:48:14.889Z,2.92
2018-12-30T09:50:43.449Z,3.65
2018-12-30T09:53:12.740Z,3.87
2018-12-30T09:55:40.729Z,2.97
2018-12-30T09:58:08.798Z,3.00
2018-12-30T10:00:37.883Z,3.45
2018-12-30T10:03:05.839Z,3.33
2018-12-30T10:05:33.823Z,3.85
2018-12-30T10:08:01.782Z,4.10
2018-12-30T10:10:29.868Z,4.43
2018-12-30T10:12:57.910Z,5.35
2018-12-30T10:15:25.905Z,5.40
2018-12-30T10:17:53.713Z,5.72
2018-12-30T10:20:22.788Z,5.53
2018-12-30T10:22:50.786Z,4.03
2018-12-30T10:25:18.738Z,4.05
2018-12-30T10:27:47.104Z,5.45
2018-12-30T10:30:15.060Z,3.35
2018-12-30T10:32:43.143Z,4.07
2018-12-30T10:35:11.128Z,4.25
2018-12-30T10:37:39.167Z,4.18
2018-12-30T10:40:07.748Z,5.05
2018-12-30T10:42:35.758Z,3.47
2018-12-30T10:45:04.317Z,3.62
2018-12-30T10:47:32.042Z,3.42
2018-12-30T10:50:00.201Z,3.28
2018-12-30T10:52:27.934Z,3.03
2018-12-30T10:54:56.378Z,3.17
2018-12-30T10:57:24.335Z,2.75
2018-12-30T10:59:52.307Z,3.25
2018-12-30T11:02:19.758Z,3.33
2018-12-30T11:04:47.772Z,3.08
2018-12-30T11:07:15.514Z,3.90
2018-12-30T11:09:43.537Z,4.07
2018-12-30T11:12:11.996Z,3.65
2018-12-30T11:14:39.980Z,3.78
2018-12-30T11:17:07.991Z,3.87
2018-12-30T11:19:35.988Z,3.60
2018-12-30T11:22:03.956Z,3.30
2018-12-30T11:24:32.498Z,3.53
2018-12-30T11:27:00.073Z,4.60
2018-12-30T11:29:28.052Z,3.75
2018-12-30T11:31:56.039Z,3.87
2018-12-30T11:34:24.135Z,4.37
2018-12-30T11:36:52.160Z,4.80
2018-12-30T11:39:20.742Z,4.70
2018-12-30T11:41:49.262Z,3.80
2018-12-30T11:44:17.214Z,4.12
2018-12-30T11:46:45.221Z,2.92
2018-12-30T11:49:14.082Z,3.90
2018-12-30T11:51:41.847Z,3.97
2018-12-30T11:54:16.265Z,2.80
2018-12-30T11:56:37.597Z,3.05
2018-12-30T11:59:05.580Z,3.62
2018-12-30T12:01:33.293Z,3.83
2018-12-30T12:04:01.696Z,3.17
2018-12-30T12:06:29.679Z,3.47
2018-12-30T12:08:57.667Z,3.47
2018-12-30T12:11:25.682Z,4.03
2018-12-30T12:13:53.379Z,3.40
2018-12-30T12:16:21.385Z,3.62
2018-12-30T12:18:49.351Z,4.50
2018-12-30T12:21:16.846Z,3.83
2018-12-30T12:23:44.833Z,3.80
2018-12-30T12:26:13.077Z,4.55
2018-12-30T12:28:41.033Z,4.03
2018-12-30T12:31:09.048Z,3.97
2018-12-30T12:33:37.125Z,3.37
2018-12-30T12:36:05.224Z,4.18
2018-12-30T12:38:33.028Z,4.57
2018-12-30T12:41:01.015Z,5.07
2018-12-30T12:43:28.995Z,3.78
2018-12-30T12:45:57.013Z,4.20
2018-12-30T12:48:25.817Z,3.92
2018-12-30T12:50:53.834Z,3.50
2018-12-30T12:53:23.509Z,4.80
2018-12-30T12:55:49.933Z,4.68
2018-12-30T12:58:17.976Z,4.40
2018-12-30T13:00:46.086Z,4.95
2018-12-30T13:03:14.093Z,4.30
2018-12-30T13:05:42.646Z,4.97
2018-12-30T13:08:10.613Z,5.70
2018-12-30T13:10:38.386Z,5.00
2018-12-30T13:13:07.087Z,4.72
2018-12-30T13:15:34.813Z,4.85
2018-12-30T13:18:03.187Z,4.22
2018-12-30T13:20:30.598Z,5.00
2018-12-30T13:22:58.553Z,3.92
2018-12-30T13:25:27.068Z,6.07
2018-12-30T13:27:55.188Z,5.62
2018-12-30T13:30:23.147Z,5.75
2018-12-30T13:32:51.177Z,5.80
2018-12-30T13:35:18.914Z,5.68
2018-12-30T13:37:46.887Z,5.95
2018-12-30T13:40:15.476Z,7.18
2018-12-30T13:42:43.496Z,5.50
2018-12-30T13:45:11.447Z,5.32
2018-12-30T13:47:39.831Z,5.72
2018-12-30T13:50:07.847Z,5.70
2018-12-30T13:52:35.845Z,6.87
2018-12-30T13:55:03.977Z,6.50
2018-12-30T13:57:31.914Z,6.55
2018-12-30T14:00:00.290Z,6.25
2018-12-30T14:02:28.280Z,6.70
2018-12-30T14:04:56.478Z,6.28
2018-12-30T14:07:24.485Z,7.87
2018-12-30T14:09:52.736Z,11.35
2018-12-30T14:12:20.765Z,8.93
2018-12-30T14:14:48.755Z,9.77
2018-12-30T14:17:17.334Z,11.18
2018-12-30T14:19:45.404Z,7.25
2018-12-30T14:22:13.397Z,9.00
2018-12-30T14:24:41.600Z,8.57
2018-12-30T14:27:09.450Z,9.23
2018-12-30T14:29:37.441Z,9.50
2018-12-30T14:32:05.598Z,8.68
2018-12-30T14:34:33.731Z,9.38
2018-12-30T14:37:01.505Z,10.45
2018-12-30T14:39:28.986Z,9.88
2018-12-30T14:41:56.935Z,9.77
2018-12-30T14:44:24.982Z,9.55
2018-12-30T14:46:53.387Z,10.93
2018-12-30T14:49:21.880Z,12.30
2018-12-30T14:51:49.610Z,12.15
2018-12-30T14:54:17.071Z,10.85
2018-12-30T14:56:45.048Z,10.57
2018-12-30T14:59:13.128Z,10.35
2018-12-30T15:01:42.599Z,10.85
2018-12-30T15:04:10.055Z,10.77
2018-12-30T15:06:38.035Z,11.45
2018-12-30T15:09:08.324Z,11.45
2018-12-30T15:11:36.733Z,11.43
2018-12-30T15:14:05.134Z,10.95
2018-12-30T15:16:33.635Z,12.02
2018-12-30T15:19:01.804Z,12.45
2018-12-30T15:21:29.947Z,12.15
2018-12-30T15:23:58.062Z,11.73
2018-12-30T15:26:26.190Z,12.18
2018-12-30T15:28:54.292Z,12.55
2018-12-30T15:31:22.375Z,14.07
2018-12-30T15:33:50.096Z,13.75
2018-12-30T15:36:18.098Z,13.60
2018-12-30T15:38:46.222Z,11.63
2018-12-30T15:41:14.311Z,13.55
2018-12-30T15:43:42.310Z,13.50
2018-12-30T15:46:10.069Z,13.00
2018-12-30T15:48:38.124Z,12.77
2018-12-30T15:51:06.077Z,12.98
2018-12-30T15:53:33.803Z,14.35
2018-12-30T15:56:01.777Z,14.35
2018-12-30T15:58:30.275Z,14.98
2018-12-30T16:00:58.016Z,18.83
2018-12-30T16:03:26.568Z,16.90
2018-12-30T16:05:57.677Z,17.37
2018-12-30T16:08:23.025Z,18.20
2018-12-30T16:10:50.778Z,17.85
2018-12-30T16:13:18.514Z,19.15
2018-12-30T16:15:46.647Z,18.65
2018-12-30T16:18:14.841Z,20.65
2018-12-30T16:20:42.533Z,19.65
2018-12-30T16:23:10.562Z,19.77
2018-12-30T16:25:38.558Z,20.88
2018-12-30T16:28:06.285Z,19.48
2018-12-30T16:30:34.592Z,19.52
2018-12-30T16:33:02.702Z,20.15
2018-12-30T16:35:30.663Z,24.10
2018-12-30T16:37:58.687Z,22.30
2018-12-30T16:40:26.518Z,22.75
2018-12-30T16:42:54.214Z,24.12
2018-12-30T16:45:22.290Z,21.60
2018-12-30T16:47:50.885Z,20.88
2018-12-30T16:50:19.114Z,19.85
2018-12-30T16:52:47.194Z,21.55
2018-12-30T16:55:15.144Z,19.90
2018-12-30T16:57:43.680Z,20.88
2018-12-30T17:00:11.922Z,21.15
2018-12-30T17:02:39.898Z,19.75
2018-12-30T17:05:08.825Z,19.62
2018-12-30T17:07:38.373Z,19.25
2018-12-30T17:10:07.255Z,19.73
2018-12-30T17:12:34.959Z,17.75
2018-12-30T17:15:03.000Z,19.35
2018-12-30T17:17:31.561Z,21.05
2018-12-30T17:19:59.880Z,19.70
2018-12-30T17:22:27.880Z,18.40
2018-12-30T17:24:55.608Z,20.48
2018-12-30T17:27:23.592Z,41.03
2018-12-30T17:29:51.304Z,27.30
2018-12-30T17:32:19.264Z,23.10
2018-12-30T17:34:47.323Z,24.85
2018-12-30T17:37:15.925Z,23.02
2018-12-30T17:39:43.998Z,22.30
2018-12-30T17:42:11.723Z,23.23
2018-12-30T17:44:39.933Z,21.37
2018-12-30T17:47:07.899Z,23.25
2018-12-30T17:49:35.900Z,23.30
2018-12-30T17:52:03.667Z,22.55
2018-12-30T17:54:31.712Z,22.83
2018-12-30T17:56:59.879Z,22.48
2018-12-30T17:59:27.727Z,22.25
2018-12-30T18:01:55.712Z,22.20
2018-12-30T18:04:23.791Z,21.85
2018-12-30T18:06:53.092Z,23.70
2018-12-30T18:09:20.545Z,23.35
2018-12-30T18:11:48.535Z,24.20
2018-12-30T18:14:16.917Z,25.12
2018-12-30T18:16:44.618Z,25.65
2018-12-30T18:19:12.624Z,37.60
2018-12-30T18:21:40.647Z,28.20
2018-12-30T18:24:08.460Z,26.40
2018-12-30T18:26:38.000Z,26.05
2018-12-30T18:29:04.399Z,25.67
2018-12-30T18:31:32.370Z,26.35
2018-12-30T18:34:01.108Z,27.15
2018-12-30T18:36:28.978Z,28.20
2018-12-30T18:38:56.908Z,30.25
2018-12-30T18:41:24.919Z,31.52
2018-12-30T18:43:52.850Z,32.78
2018-12-30T18:46:21.002Z,31.80
2018-12-30T18:48:49.569Z,27.80
2018-12-30T18:51:17.655Z,27.77
2018-12-30T18:53:45.355Z,27.70
2018-12-30T18:56:13.336Z,25.15
2018-12-30T18:58:41.504Z,23.87
2018-12-30T19:01:09.435Z,25.17
2018-12-30T19:03:37.958Z,25.37
2018-12-30T19:06:06.647Z,23.95
2018-12-30T19:08:35.144Z,25.33
2018-12-30T19:11:03.557Z,24.10
2018-12-30T19:13:32.542Z,24.77
2018-12-30T19:16:00.268Z,24.37
2018-12-30T19:18:27.995Z,27.05
2018-12-30T19:20:56.149Z,25.33
2018-12-30T19:23:24.091Z,27.37
2018-12-30T19:25:52.581Z,29.35
2018-12-30T19:28:20.574Z,26.95
2018-12-30T19:30:48.296Z,29.45
2018-12-30T19:33:16.022Z,29.77
2018-12-30T19:35:44.025Z,27.75
2018-12-30T19:38:11.993Z,25.90
2018-12-30T19:40:39.991Z,25.50
2018-12-30T19:43:07.750Z,23.50
2018-12-30T19:45:35.447Z,22.80
2018-12-30T19:48:03.131Z,24.55
2018-12-30T19:50:31.480Z,22.60
2018-12-30T19:53:00.073Z,21.92
2018-12-30T19:55:28.127Z,23.38
2018-12-30T19:57:56.215Z,24.25
2018-12-30T20:00:24.907Z,25.27
2018-12-30T20:02:52.985Z,25.12
2018-12-30T20:05:21.307Z,23.08
2018-12-30T20:07:49.327Z,23.38
2018-12-30T20:10:17.016Z,22.00
2018-12-30T20:12:45.030Z,22.23
2018-12-30T20:15:12.734Z,22.80
2018-12-30T20:17:40.650Z,23.48
2018-12-30T20:20:08.644Z,23.70
2018-12-30T20:22:36.605Z,23.95
2018-12-30T20:25:04.710Z,20.42
2018-12-30T20:27:32.871Z,23.40
2018-12-30T20:30:00.917Z,24.02
2018-12-30T20:32:28.597Z,22.77
2018-12-30T20:34:56.591Z,22.13
2018-12-30T20:37:24.009Z,21.83
2018-12-30T20:39:52.030Z,21.73
2018-12-30T20:42:20.940Z,20.92
2018-12-30T20:44:48.873Z,21.35
2018-12-30T20:47:16.847Z,22.98
2018-12-30T20:49:44.577Z,21.27
2018-12-30T20:52:13.159Z,20.75
2018-12-30T20:54:41.243Z,22.70
2018-12-30T20:57:09.268Z,20.48
2018-12-30T20:59:36.958Z,20.12
2018-12-30T21:02:04.944Z,20.37
2018-12-30T21:04:33.792Z,22.35
2018-12-30T21:07:01.782Z,20.27
2018-12-30T21:09:29.770Z,21.67
2018-12-30T21:11:58.256Z,20.20
2018-12-30T21:14:25.996Z,21.58
2018-12-30T21:16:53.743Z,20.08
2018-12-30T21:19:22.367Z,21.73
2018-12-30T21:21:50.060Z,22.17
2018-12-30T21:24:18.523Z,21.67
2018-12-30T21:26:46.548Z,21.90
2018-12-30T21:29:14.249Z,21.50
2018-12-30T21:31:41.985Z,20.98
2018-12-30T21:34:09.986Z,21.70
2018-12-30T21:36:37.940Z,21.73
2018-12-30T21:39:07.518Z,20.98
2018-12-30T21:41:35.540Z,20.98
2018-12-30T21:44:03.249Z,21.58
2018-12-30T21:46:31.235Z,20.83
2018-12-30T21:48:59.260Z,20.62
2018-12-30T21:51:27.233Z,20.33
2018-12-30T21:53:55.834Z,22.30
2018-12-30T21:56:24.100Z,19.70
2018-12-30T21:58:52.236Z,19.58
2018-12-30T22:01:20.223Z,20.50
2018-12-30T22:03:48.228Z,19.33
2018-12-30T22:06:16.334Z,19.25
2018-12-30T22:08:44.268Z,18.10
2018-12-30T22:11:12.282Z,19.60
2018-12-30T22:13:40.686Z,19.55
2018-12-30T22:16:08.679Z,18.95
2018-12-30T22:18:36.991Z,19.55
2018-12-30T22:21:04.540Z,18.87
2018-12-30T22:23:33.053Z,18.52
2018-12-30T22:26:01.233Z,18.45
2018-12-30T22:28:29.214Z,19.83
2018-12-30T22:30:57.722Z,18.08
2018-12-30T22:33:25.464Z,19.08
2018-12-30T22:35:53.438Z,18.95
2018-12-30T22:38:21.430Z,18.90
2018-12-30T22:40:49.697Z,17.65
2018-12-30T22:43:17.644Z,18.17
2018-12-30T22:45:45.659Z,17.35
2018-12-30T22:48:13.763Z,15.30
2018-12-30T22:50:41.859Z,14.30
2018-12-30T22:53:09.844Z,16.00
2018-12-30T22:55:37.764Z,15.32
2018-12-30T22:58:05.734Z,15.70
2018-12-30T23:00:58.367Z,15.57
2018-12-30T23:03:26.434Z,15.35
2018-12-30T23:05:54.423Z,15.15
2018-12-30T23:08:22.986Z,14.60
2018-12-30T23:10:54.955Z,15.48
2018-12-30T23:13:22.919Z,15.00
2018-12-30T23:15:52.098Z,16.30
2018-12-30T23:18:20.078Z,16.52
2018-12-30T23:20:48.041Z,17.17
2018-12-30T23:23:16.154Z,17.55
2018-12-30T23:25:45.839Z,19.35
2018-12-30T23:28:11.994Z,18.58
2018-12-30T23:30:40.319Z,20.20
2018-12-30T23:33:08.053Z,18.75
2018-12-30T23:35:36.021Z,19.37
2018-12-30T23:38:04.055Z,20.62
2018-12-30T23:40:32.045Z,21.58
2018-12-30T23:43:00.021Z,20.98
2018-12-30T23:45:27.771Z,20.55
2018-12-30T23:47:56.280Z,21.05
2018-12-30T23:50:24.410Z,20.70
2018-12-30T23:52:52.423Z,21.60
2018-12-30T23:55:20.719Z,20.80
2018-12-30T23:57:48.884Z,20.95
